Time;durP1;ratioP1;P1;durP2;ratioP2;P2;SDS_P1;SDS_P2;PMS_P1;PMS_P2;Temp;Humidity;BMP_temperature;BMP_pressure;BME280_temperature;BME280_humidity;BME280_pressure;Samples;Min_cycle;Max_cycle;Signal;HPM_P1;HPM_P2
2022/09/21 00:01:40;;;;;;;4.10;2.60;;;;;;;7.41;95.71;100983.50;107080;1250;70940;-70
2022/09/21 00:04:09;;;;;;;4.30;2.90;;;;;;;7.40;95.45;100982.17;106962;1251;69773;-70
2022/09/21 00:06:38;;;;;;;4.70;2.50;;;;;;;7.40;95.81;100981.13;107043;1250;71883;-71
2022/09/21 00:09:08;;;;;;;3.10;1.90;;;;;;;7.39;95.51;100980.52;107014;1250;62077;-70
2022/09/21 00:11:37;;;;;;;3.80;2.70;;;;;;;7.38;95.23;100974.65;106854;1250;62081;-69
2022/09/21 00:14:12;;;;;;;4.20;2.50;;;;;;;7.41;95.91;100976.93;107026;1250;75112;-70
2022/09/21 00:16:42;;;;;;;4.30;2.50;;;;;;;7.37;94.44;100978.02;107066;1250;70130;-69
2022/09/21 00:19:11;;;;;;;4.60;2.60;;;;;;;7.37;95.19;100981.98;106848;1250;69813;-72
2022/09/21 00:21:40;;;;;;;5.60;2.90;;;;;;;7.37;96.36;100983.73;106913;1253;72262;-71
2022/09/21 00:24:09;;;;;;;6.50;3.20;;;;;;;7.38;96.34;100986.27;107091;1250;61415;-71
2022/09/21 00:26:38;;;;;;;5.40;2.40;;;;;;;7.37;96.19;100989.95;107143;1250;59070;-68
2022/09/21 00:29:07;;;;;;;4.50;2.50;;;;;;;7.38;95.83;100991.45;107090;1251;71531;-70
2022/09/21 00:31:36;;;;;;;5.20;2.20;;;;;;;7.32;96.07;100982.46;107187;1250;73216;-72
2022/09/21 00:34:06;;;;;;;3.20;2.10;;;;;;;7.41;95.52;100995.11;107100;1250;68738;-72
2022/09/21 00:36:35;;;;;;;4.60;2.60;;;;;;;7.41;95.71;100994.91;107046;1250;72418;-70
2022/09/21 00:39:04;;;;;;;4.20;3.00;;;;;;;7.46;95.92;100998.31;107092;1250;60638;-70
2022/09/21 00:41:33;;;;;;;4.20;2.40;;;;;;;7.50;96.21;100993.08;107057;1250;62010;-70
2022/09/21 00:44:15;;;;;;;3.50;2.40;;;;;;;7.54;95.83;100994.89;107134;1250;76221;-70
2022/09/21 00:46:45;;;;;;;4.50;2.10;;;;;;;7.62;96.09;100989.29;107073;1250;73081;-69
2022/09/21 00:49:15;;;;;;;3.10;1.90;;;;;;;7.65;94.91;100986.34;107191;1250;69337;-69
2022/09/21 00:51:46;;;;;;;4.10;2.20;;;;;;;7.66;95.01;100986.09;107126;1250;71158;-69
2022/09/21 00:54:24;;;;;;;2.90;1.80;;;;;;;7.72;95.61;100985.59;107223;1251;59444;-68
2022/09/21 00:56:55;;;;;;;3.90;2.00;;;;;;;7.77;94.47;100987.25;107073;1250;61281;-70
2022/09/21 00:59:24;;;;;;;4.30;1.90;;;;;;;7.79;94.60;100986.23;107270;1250;73215;-69
2022/09/21 01:01:59;;;;;;;3.60;2.10;;;;;;;7.78;94.70;100975.57;107237;1250;71583;-69
2022/09/21 01:04:29;;;;;;;4.10;1.80;;;;;;;7.86;94.22;100985.14;107009;1253;67083;-70
2022/09/21 01:07:02;;;;;;;2.80;1.70;;;;;;;7.92;93.68;100986.55;107893;1250;74388;-70
2022/09/21 01:09:32;;;;;;;5.60;2.00;;;;;;;7.99;93.61;100984.77;107341;1250;61203;-69
2022/09/21 01:12:17;;;;;;;3.20;1.90;;;;;;;8.04;93.37;100983.98;106987;1250;60527;-69
2022/09/21 01:15:00;;;;;;;3.10;1.60;;;;;;;8.09;93.42;100985.05;107159;1250;74072;-67
2022/09/21 01:17:43;;;;;;;2.40;1.60;;;;;;;8.15;93.08;100983.15;106985;1252;69989;-67
2022/09/21 01:20:55;;;;;;;4.00;1.70;;;;;;;8.23;92.84;100984.92;107264;1250;70544;-69
2022/09/21 01:23:48;;;;;;;3.00;1.70;;;;;;;8.30;92.72;100982.32;107133;1250;73372;-69
2022/09/21 01:26:37;;;;;;;2.70;1.90;;;;;;;8.33;92.66;100979.30;106918;1250;61312;-70
2022/09/21 01:29:15;;;;;;;3.00;2.00;;;;;;;8.35;92.72;100980.80;107225;1250;60958;-70
2022/09/21 01:32:07;;;;;;;2.80;1.80;;;;;;;8.38;92.16;100980.64;107238;1250;71711;-71
2022/09/21 01:35:11;;;;;;;4.00;1.60;;;;;;;8.43;91.78;100981.39;107064;1250;71378;-70
2022/09/21 01:37:47;;;;;;;2.90;1.60;;;;;;;8.51;91.88;100982.64;107212;1250;68514;-71
2022/09/21 01:40:28;;;;;;;6.00;1.90;;;;;;;8.56;92.07;100977.86;107288;1250;73169;-70
2022/09/21 01:43:08;;;;;;;2.80;1.80;;;;;;;8.64;92.23;100977.02;107204;1250;63348;-70
2022/09/21 01:45:43;;;;;;;4.50;2.10;;;;;;;8.71;92.73;100975.85;107200;1250;61121;-69
2022/09/21 01:48:14;;;;;;;3.20;2.00;;;;;;;8.78;92.39;100973.05;107152;1253;71352;-70
2022/09/21 01:50:49;;;;;;;5.50;2.10;;;;;;;8.83;92.40;100972.38;106870;1249;72936;-71
2022/09/21 01:53:40;;;;;;;4.90;2.30;;;;;;;8.87;91.45;100973.91;107065;1250;69603;-69
2022/09/21 01:56:29;;;;;;;3.00;1.80;;;;;;;8.87;91.43;100971.48;107041;1250;73870;-68
2022/09/21 01:59:16;;;;;;;3.10;2.00;;;;;;;8.84;91.49;100970.23;107114;1253;61093;-70
2022/09/21 02:02:25;;;;;;;3.80;2.20;;;;;;;8.87;91.20;100971.43;107078;1251;59785;-69
2022/09/21 02:04:53;;;;;;;4.20;1.90;;;;;;;8.86;90.87;100971.52;106342;1250;390862;-68
2022/09/21 02:07:23;;;;;;;2.60;1.90;;;;;;;8.83;91.29;100979.70;107155;1253;69553;-70
2022/09/21 02:09:54;;;;;;;5.10;1.80;;;;;;;8.79;90.89;100980.79;107052;1253;67110;-68
2022/09/21 02:12:23;;;;;;;3.30;1.90;;;;;;;8.78;90.88;100983.42;107026;1251;71556;-70
2022/09/21 02:14:54;;;;;;;3.90;1.60;;;;;;;8.75;92.44;100984.66;107256;1250;60649;-72
2022/09/21 02:17:42;;;;;;;2.70;1.90;;;;;;;8.72;92.76;100982.09;107228;1250;59423;-70
2022/09/21 02:20:48;;;;;;;3.20;1.80;;;;;;;8.69;93.08;100990.91;107068;1251;73230;-68
2022/09/21 02:23:33;;;;;;;3.00;1.80;;;;;;;8.69;92.80;100990.73;107185;1250;71523;-69
2022/09/21 02:26:34;;;;;;;2.90;1.90;;;;;;;8.69;93.18;100993.38;107190;1250;68454;-71
2022/09/21 02:29:31;;;;;;;2.80;1.80;;;;;;;8.66;92.95;100992.36;107163;1251;71691;-73
2022/09/21 02:32:16;;;;;;;3.90;1.80;;;;;;;8.62;92.70;100990.14;107225;1250;60527;-70
2022/09/21 02:34:55;;;;;;;2.90;1.80;;;;;;;8.61;91.36;100987.57;107247;1250;58968;-69
2022/09/21 02:37:48;;;;;;;3.30;1.90;;;;;;;8.60;90.89;100987.30;107251;1250;73563;-70
2022/09/21 02:40:30;;;;;;;4.60;2.20;;;;;;;8.57;91.33;100982.78;107211;1250;72607;-69
2022/09/21 02:43:12;;;;;;;2.70;2.00;;;;;;;8.55;91.30;100983.95;106998;1250;68602;-71
2022/09/21 02:45:50;;;;;;;3.80;2.00;;;;;;;8.55;91.29;100982.76;106956;1253;74495;-68
2022/09/21 02:48:35;;;;;;;2.70;1.80;;;;;;;8.52;91.50;100983.64;107160;1250;61748;-71
2022/09/21 02:51:13;;;;;;;2.80;1.70;;;;;;;8.53;91.45;100984.07;107037;1250;60247;-69
2022/09/21 02:53:45;;;;;;;3.20;1.90;;;;;;;8.58;91.21;100982.93;107056;1249;70855;-72
2022/09/21 02:56:15;;;;;;;4.10;1.70;;;;;;;8.60;91.43;100979.64;106888;1253;70371;-71
2022/09/21 02:58:53;;;;;;;3.20;2.10;;;;;;;8.65;91.39;100982.67;106749;1252;69704;-71
2022/09/21 03:01:25;;;;;;;3.30;2.00;;;;;;;8.72;91.47;100981.36;106837;1250;73956;-71
2022/09/21 03:03:54;;;;;;;3.00;1.60;;;;;;;8.79;91.49;100977.70;106611;1252;61388;-70
2022/09/21 03:06:22;;;;;;;7.60;2.10;;;;;;;8.84;91.49;100975.81;106885;1250;62200;-73
2022/09/21 03:08:52;;;;;;;6.20;2.20;;;;;;;8.89;90.99;100978.80;107022;1250;73512;-72
2022/09/21 03:11:21;;;;;;;3.10;1.90;;;;;;;8.93;90.67;100981.64;107108;1250;71412;-73
2022/09/21 03:13:50;;;;;;;3.30;2.20;;;;;;;9.01;90.44;100984.84;106944;1253;70584;-72
2022/09/21 03:16:18;;;;;;;2.70;1.80;;;;;;;9.07;90.66;100981.34;107048;1250;73852;-72
2022/09/21 03:18:47;;;;;;;6.40;2.40;;;;;;;9.13;90.39;100977.63;106787;1250;62850;-72
2022/09/21 03:21:17;;;;;;;3.00;1.90;;;;;;;9.18;90.05;100981.14;107016;1250;59504;-69
2022/09/21 03:23:45;;;;;;;3.00;2.00;;;;;;;9.21;89.80;100981.83;106844;1253;73557;-71
2022/09/21 03:26:14;;;;;;;3.30;2.00;;;;;;;9.22;89.53;100981.63;106982;1252;69878;-72
2022/09/21 03:28:43;;;;;;;3.20;2.10;;;;;;;9.24;89.48;100978.01;106992;1253;70196;-71
2022/09/21 03:31:11;;;;;;;5.20;1.90;;;;;;;9.31;89.12;100980.15;107030;1250;74529;-71
2022/09/21 03:33:40;;;;;;;5.30;2.20;;;;;;;9.38;89.22;100982.37;107050;1251;62401;-73
2022/09/21 03:36:09;;;;;;;3.90;2.00;;;;;;;9.40;89.04;100979.77;107182;1250;59149;-68
2022/09/21 03:38:38;;;;;;;3.70;1.80;;;;;;;9.43;88.76;100977.50;107084;1250;73132;-69
2022/09/21 03:41:07;;;;;;;3.50;2.20;;;;;;;9.42;88.48;100977.54;107328;1250;70131;-71
2022/09/21 03:43:36;;;;;;;4.50;2.40;;;;;;;9.41;88.36;100980.29;106920;1253;68745;-74
2022/09/21 03:46:05;;;;;;;5.00;2.00;;;;;;;9.36;88.45;100978.83;107181;1250;73605;-74
2022/09/21 03:48:33;;;;;;;3.70;1.90;;;;;;;9.35;88.69;100980.63;107145;1250;62819;-73
2022/09/21 03:51:03;;;;;;;3.20;2.00;;;;;;;9.31;89.05;100980.31;107249;1250;60837;-72
2022/09/21 03:53:35;;;;;;;5.30;1.70;;;;;;;9.28;89.23;100978.96;106989;1250;74474;-75
2022/09/21 03:56:04;;;;;;;3.10;1.90;;;;;;;9.27;89.25;100981.63;107032;1252;71777;-76
2022/09/21 03:58:33;;;;;;;3.10;2.40;;;;;;;9.23;89.05;100985.15;107070;1251;71012;-70
2022/09/21 04:01:03;;;;;;;3.00;1.90;;;;;;;9.20;89.97;100989.39;106991;1250;74104;-73
2022/09/21 04:03:31;;;;;;;5.70;1.80;;;;;;;9.21;90.71;100989.52;107306;1250;61630;-72
2022/09/21 04:06:07;;;;;;;4.40;2.00;;;;;;;9.23;89.28;100992.12;106997;1253;60106;-73
2022/09/21 04:08:35;;;;;;;8.10;2.00;;;;;;;9.25;89.47;100996.05;107158;1250;73643;-77
2022/09/21 04:11:13;;;;;;;3.50;1.90;;;;;;;9.27;89.42;101000.40;107174;1250;70832;-75
2022/09/21 04:13:43;;;;;;;4.50;1.80;;;;;;;9.26;89.22;100999.91;107313;1250;67178;-71
2022/09/21 04:16:11;;;;;;;4.60;2.30;;;;;;;9.26;89.73;101004.46;107925;1244;73850;-72
2022/09/21 04:18:40;;;;;;;4.40;2.20;;;;;;;9.28;89.61;101005.23;107771;1244;61190;-73
2022/09/21 04:21:09;;;;;;;12.70;7.20;;;;;;;9.29;90.47;101006.52;107625;1244;59789;-73
2022/09/21 04:23:38;;;;;;;14.80;7.70;;;;;;;9.37;89.88;101009.39;107727;1244;74055;-74
2022/09/21 04:26:21;;;;;;;6.20;4.40;;;;;;;9.40;89.69;101010.89;107801;1244;72731;-73
2022/09/21 04:28:51;;;;;;;3.70;2.20;;;;;;;9.47;89.39;101011.13;107737;1244;69870;-71
2022/09/21 04:31:22;;;;;;;8.10;5.80;;;;;;;9.51;89.04;101010.21;107905;1244;71389;-73
2022/09/21 04:33:54;;;;;;;8.90;2.40;;;;;;;9.53;88.59;101015.11;107598;1244;60609;-73
2022/09/21 04:36:25;;;;;;;3.50;2.20;;;;;;;9.51;89.09;101016.46;107817;1244;60970;-74
2022/09/21 04:38:54;;;;;;;10.10;4.10;;;;;;;9.57;88.51;101016.95;107734;1244;74697;-72
2022/09/21 04:41:22;;;;;;;6.00;2.70;;;;;;;9.63;88.33;101019.90;107813;1244;72130;-75
2022/09/21 04:43:51;;;;;;;4.00;2.00;;;;;;;9.66;88.01;101021.09;107805;1247;69515;-72
2022/09/21 04:46:21;;;;;;;5.90;2.10;;;;;;;9.67;87.64;101024.64;107702;1244;71206;-73
2022/09/21 04:48:49;;;;;;;3.90;2.10;;;;;;;9.68;87.91;101028.05;107797;1243;60290;-74
2022/09/21 04:51:18;;;;;;;9.10;3.00;;;;;;;9.72;87.31;101026.13;107885;1244;59386;-73
2022/09/21 04:53:47;;;;;;;41.70;18.20;;;;;;;9.79;87.17;101028.60;107756;1244;71840;-72
2022/09/21 04:56:23;;;;;;;8.50;3.50;;;;;;;9.84;87.14;101027.39;107797;1245;69522;-72
2022/09/21 04:58:52;;;;;;;3.80;2.20;;;;;;;9.87;87.05;101030.21;107568;1244;70006;-72
2022/09/21 05:01:21;;;;;;;12.90;6.50;;;;;;;9.91;86.87;101031.49;107718;1244;75397;-72
2022/09/21 05:03:49;;;;;;;6.90;2.80;;;;;;;9.92;86.26;101033.15;107707;1244;60010;-75
2022/09/21 05:06:18;;;;;;;4.60;2.10;;;;;;;9.95;85.94;101033.47;107857;1244;59793;-73
2022/09/21 05:11:34;;;;;;;6.80;2.40;;;;;;;10.03;85.63;101033.84;107896;1244;70217;-72
2022/09/21 05:14:03;;;;;;;4.30;2.00;;;;;;;10.04;85.57;101036.91;107718;1244;68700;-75
2022/09/21 05:16:32;;;;;;;7.00;2.40;;;;;;;10.10;85.24;101040.15;107674;1247;71245;-75
2022/09/21 05:19:02;;;;;;;6.40;2.70;;;;;;;10.17;84.42;101039.92;107866;1244;58965;-76
2022/09/21 05:21:31;;;;;;;8.60;3.40;;;;;;;10.22;84.33;101040.25;107812;1244;61282;-73
2022/09/21 05:23:59;;;;;;;5.00;3.00;;;;;;;10.26;83.82;101042.30;107885;1244;73971;-73
2022/09/21 05:26:28;;;;;;;6.10;3.10;;;;;;;10.34;83.23;101044.51;107993;1244;70324;-75
2022/09/21 05:28:58;;;;;;;4.90;2.90;;;;;;;10.41;83.01;101040.08;107751;1246;67914;-75
2022/09/21 05:31:46;;;;;;;5.10;2.90;;;;;;;10.51;82.69;101043.09;107914;1244;73936;-75
2022/09/21 05:35:01;;;;;;;5.10;3.50;;;;;;;10.61;81.80;101044.49;107740;1246;60887;-71
2022/09/21 05:38:04;;;;;;;5.70;3.40;;;;;;;10.58;82.42;101044.33;107814;1244;59016;-72
2022/09/21 05:40:36;;;;;;;4.60;3.40;;;;;;;10.70;81.96;101047.89;107941;1244;71693;-74
2022/09/21 05:43:05;;;;;;;5.50;3.20;;;;;;;10.74;82.18;101049.84;107991;1244;69747;-75
2022/09/21 05:45:39;;;;;;;4.20;2.70;;;;;;;10.69;81.72;101046.36;107776;1247;68782;-75
2022/09/21 05:48:30;;;;;;;6.00;3.90;;;;;;;10.73;81.68;101047.16;107869;1244;71932;-74
2022/09/21 05:51:42;;;;;;;4.60;2.70;;;;;;;10.69;82.32;101044.96;107920;1244;62787;-74
2022/09/21 05:54:31;;;;;;;8.20;3.80;;;;;;;10.71;82.50;101039.84;108179;1241;61176;-76
2022/09/21 05:57:38;;;;;;;5.70;3.40;;;;;;;10.73;82.46;101046.16;108204;1241;72135;-74
2022/09/21 06:00:21;;;;;;;6.50;3.50;;;;;;;10.79;81.66;101044.69;107939;1243;70253;-79
2022/09/21 06:03:29;;;;;;;7.80;3.80;;;;;;;10.75;81.97;101049.15;107939;1243;70598;-73
2022/09/21 06:05:58;;;;;;;6.90;3.90;;;;;;;10.78;81.50;101049.40;108136;1241;74198;-72
2022/09/21 06:08:27;;;;;;;6.20;3.90;;;;;;;10.84;81.69;101054.09;107940;1243;62855;-73
2022/09/21 06:10:56;;;;;;;8.60;4.40;;;;;;;10.90;80.96;101054.05;107925;1243;61437;-74
2022/09/21 06:13:25;;;;;;;9.70;6.50;;;;;;;10.85;81.11;101049.48;107940;1244;73999;-74
2022/09/21 06:15:54;;;;;;;8.40;4.50;;;;;;;10.94;81.14;101056.73;107729;1242;71846;-72
2022/09/21 06:18:22;;;;;;;6.70;4.10;;;;;;;10.98;81.27;101058.87;108211;1244;70119;-72
2022/09/21 06:20:51;;;;;;;7.30;4.00;;;;;;;11.01;81.24;101064.95;107854;1244;72604;-74
2022/09/21 06:23:20;;;;;;;6.60;5.20;;;;;;;11.05;81.45;101067.13;107788;1244;60553;-69
2022/09/21 06:25:53;;;;;;;7.20;4.60;;;;;;;11.06;81.25;101069.64;107938;1243;60481;-75
2022/09/21 06:28:27;;;;;;;8.00;4.20;;;;;;;11.08;81.01;101071.09;107854;1244;71019;-75
2022/09/21 06:30:57;;;;;;;5.80;3.90;;;;;;;11.13;80.67;101079.12;107913;1243;72403;-73
2022/09/21 06:33:25;;;;;;;6.60;3.70;;;;;;;11.10;80.55;101075.48;107765;1243;71251;-77
2022/09/21 06:35:59;;;;;;;5.00;3.60;;;;;;;11.19;80.74;101075.03;108219;1241;74543;-71
2022/09/21 06:38:28;;;;;;;5.40;3.80;;;;;;;11.26;79.85;101081.49;108162;1241;61959;-76
2022/09/21 06:41:02;;;;;;;7.50;4.60;;;;;;;11.26;79.25;101081.33;107863;1241;61854;-72
2022/09/21 06:43:31;;;;;;;5.10;3.80;;;;;;;11.22;79.44;101080.08;108215;1241;74133;-75
2022/09/21 06:46:02;;;;;;;5.40;3.80;;;;;;;11.24;79.28;101078.71;108127;1242;73262;-73
2022/09/21 06:48:34;;;;;;;6.60;4.80;;;;;;;11.20;80.03;101081.27;108426;1242;69274;-71
2022/09/21 06:51:05;;;;;;;6.50;4.80;;;;;;;11.24;80.57;101086.89;108285;1241;73949;-73
2022/09/21 06:53:34;;;;;;;7.90;4.70;;;;;;;11.32;80.29;101083.75;108242;1242;61822;-76
2022/09/21 06:56:07;;;;;;;6.10;4.00;;;;;;;11.32;80.41;101087.38;108060;1244;60275;-75
2022/09/21 06:58:37;;;;;;;5.40;3.90;;;;;;;11.46;80.16;101087.64;107915;1244;73097;-74
2022/09/21 07:01:11;;;;;;;7.70;4.20;;;;;;;11.50;80.04;101078.27;108271;1241;71940;-73
2022/09/21 07:03:42;;;;;;;8.80;4.30;;;;;;;11.67;79.31;101085.95;108317;1241;70442;-74
2022/09/21 07:06:13;;;;;;;6.70;3.90;;;;;;;11.70;78.82;101089.27;108383;1241;73769;-79
2022/09/21 07:08:42;;;;;;;8.50;4.80;;;;;;;11.70;78.62;101083.52;108066;1244;60943;-75
2022/09/21 07:11:31;;;;;;;11.00;5.30;;;;;;;11.84;78.49;101084.56;107895;1243;58821;-74
2022/09/21 07:14:00;;;;;;;7.10;4.90;;;;;;;11.88;78.80;101085.39;108277;1241;70852;-72
2022/09/21 07:16:29;;;;;;;10.20;4.60;;;;;;;11.97;78.51;101085.79;108291;1241;72632;-75
2022/09/21 07:18:59;;;;;;;10.40;6.00;;;;;;;12.07;77.88;101086.24;108170;1241;70969;-74
2022/09/21 07:21:39;;;;;;;8.30;5.60;;;;;;;12.13;77.84;101080.91;108248;1241;74169;-70
2022/09/21 07:24:08;;;;;;;6.90;4.40;;;;;;;12.18;78.00;101086.86;108164;1244;63264;-75
2022/09/21 07:26:40;;;;;;;9.40;5.20;;;;;;;12.17;78.29;101092.52;108164;1241;61891;-73
2022/09/21 07:29:08;;;;;;;8.70;5.30;;;;;;;12.24;78.47;101090.65;107978;1241;74135;-74
2022/09/21 07:31:37;;;;;;;9.40;5.20;;;;;;;12.33;78.52;101096.74;107981;1244;71275;-75
2022/09/21 07:34:06;;;;;;;7.30;5.20;;;;;;;12.36;78.49;101092.89;108202;1241;69089;-74
2022/09/21 07:36:35;;;;;;;7.30;5.10;;;;;;;12.38;77.99;101094.98;107974;1244;72016;-76
2022/09/21 07:39:04;;;;;;;8.40;5.30;;;;;;;12.40;76.43;101097.09;107999;1243;58736;-75
2022/09/21 07:41:33;;;;;;;10.40;5.10;;;;;;;12.36;75.63;101092.65;108169;1241;61275;-74
2022/09/21 07:44:02;;;;;;;7.10;5.00;;;;;;;12.45;75.29;101095.85;108249;1242;72979;-79
2022/09/21 07:46:31;;;;;;;7.30;4.80;;;;;;;12.45;74.62;101093.05;107959;1243;70380;-76
2022/09/21 07:49:00;;;;;;;7.00;4.50;;;;;;;12.47;74.70;101090.52;107813;1244;67908;-77
2022/09/21 07:51:29;;;;;;;8.90;5.30;;;;;;;12.52;74.31;101098.14;107857;1243;73864;-74
2022/09/21 07:53:58;;;;;;;6.70;4.50;;;;;;;12.48;74.66;101094.09;107880;1244;61749;-73
2022/09/21 07:56:26;;;;;;;8.10;5.10;;;;;;;12.55;74.66;101090.40;107984;1244;60929;-72
2022/09/21 07:59:07;;;;;;;9.00;5.90;;;;;;;12.64;74.70;101095.32;108042;1241;72312;-73
2022/09/21 08:01:40;;;;;;;8.20;5.10;;;;;;;12.66;74.97;101092.54;107947;1243;70403;-75
2022/09/21 08:04:10;;;;;;;4.70;3.50;;;;;;;12.69;74.67;101088.66;107958;1243;67912;-74
2022/09/21 08:06:39;;;;;;;8.50;4.90;;;;;;;12.70;74.36;101090.17;108852;1244;73930;-77
2022/09/21 08:09:07;;;;;;;6.20;4.00;;;;;;;12.71;73.86;101092.89;108218;1241;61773;-71
2022/09/21 08:11:36;;;;;;;6.10;4.30;;;;;;;12.72;74.10;101093.48;108118;1242;59312;-80
2022/09/21 08:14:05;;;;;;;5.00;3.80;;;;;;;12.71;73.82;101096.22;108409;1241;74456;-75
2022/09/21 08:16:37;;;;;;;6.10;4.90;;;;;;;12.68;73.35;101099.91;108008;1242;72372;-82
2022/09/21 08:19:06;;;;;;;5.60;4.50;;;;;;;12.72;73.07;101096.11;108209;1241;70192;-77
2022/09/21 08:21:35;;;;;;;6.30;4.70;;;;;;;12.78;72.86;101094.82;108262;1241;72325;-75
2022/09/21 08:24:04;;;;;;;5.00;4.00;;;;;;;12.89;72.20;101092.95;108146;1241;61384;-75
2022/09/21 08:26:35;;;;;;;6.10;4.00;;;;;;;12.96;71.90;101093.27;108209;1243;60018;-71
2022/09/21 08:29:05;;;;;;;6.90;4.70;;;;;;;12.97;71.91;101094.91;108120;1244;71268;-79
2022/09/21 08:31:34;;;;;;;11.60;4.30;;;;;;;13.00;71.94;101095.77;108193;1241;71579;-83
2022/09/21 08:34:02;;;;;;;5.00;3.60;;;;;;;12.95;71.57;101099.78;108227;1242;70438;-78
2022/09/21 08:36:31;;;;;;;6.40;3.90;;;;;;;12.94;71.60;101095.83;108204;1244;72315;-79
2022/09/21 08:39:00;;;;;;;5.70;3.80;;;;;;;12.96;71.60;101098.33;107970;1243;61661;-82
2022/09/21 08:41:53;;;;;;;5.70;4.30;;;;;;;12.93;72.01;101092.98;108197;1243;59739;-76
2022/09/21 08:45:04;;;;;;;5.60;4.40;;;;;;;12.94;71.29;101094.46;108043;1243;71352;-79
2022/09/21 08:47:45;;;;;;;5.70;4.20;;;;;;;12.85;71.52;101094.27;107416;1244;72431;-76
2022/09/21 08:52:31;;;;;;;8.60;4.80;;;;;;;12.78;72.35;101093.27;104364;1289;599857;-80
2022/09/21 08:55:14;;;;;;;9.30;4.80;;;;;;;12.78;71.96;101092.38;106822;1260;59985;-81
2022/09/21 08:57:45;;;;;;;8.00;5.00;;;;;;;12.79;72.46;101087.86;106919;1257;60070;-80
2022/09/21 09:00:18;;;;;;;7.30;4.90;;;;;;;12.91;72.36;101087.14;107059;1257;71323;-82
2022/09/21 09:02:53;;;;;;;6.50;5.10;;;;;;;12.97;72.20;101082.86;106923;1256;71564;-78
2022/09/21 09:06:19;;;;;;;7.10;4.80;;;;;;;13.08;71.88;101077.81;106910;1255;232688;-77
2022/09/21 09:09:29;;;;;;;7.10;4.90;;;;;;;13.31;70.91;101078.89;106310;1260;74268;-77
2022/09/21 09:12:14;;;;;;;5.00;3.80;;;;;;;13.54;69.94;101067.44;106484;1260;59418;-77
2022/09/21 09:15:01;;;;;;;4.30;3.70;;;;;;;13.66;69.52;101065.46;107057;1254;60400;-82
2022/09/21 09:17:55;;;;;;;5.40;3.60;;;;;;;13.90;68.26;101069.33;107227;1253;70388;-82
2022/09/21 09:20:41;;;;;;;;;;;;;;;14.01;67.19;101066.15;107592;1251;71754;-81
2022/09/21 09:23:16;;;;;;;5.30;3.20;;;;;;;14.24;65.98;101062.64;107502;1251;69102;-79
2022/09/21 09:25:53;;;;;;;4.90;3.80;;;;;;;14.38;65.04;101059.08;107487;1251;71686;-83
2022/09/21 09:28:30;;;;;;;5.00;3.60;;;;;;;14.37;64.79;101058.62;107477;1251;60499;-83
2022/09/21 09:31:09;;;;;;;4.00;3.20;;;;;;;14.49;64.56;101057.77;107516;1250;59335;-80
2022/09/21 09:33:52;;;;;;;5.40;3.90;;;;;;;14.59;63.60;101052.27;107575;1251;70068;-79
2022/09/21 09:36:27;;;;;;;6.90;3.90;;;;;;;14.58;64.00;101050.55;107520;1251;70370;-81
2022/09/21 09:39:18;;;;;;;3.60;2.90;;;;;;;14.65;63.15;101046.34;107403;1251;70577;-79
2022/09/21 09:42:08;;;;;;;4.50;3.30;;;;;;;14.72;62.70;101045.05;107445;1251;73331;-81
2022/09/21 09:45:01;;;;;;;5.10;3.30;;;;;;;14.73;63.17;101033.02;107493;1251;59532;-83
2022/09/21 09:48:15;;;;;;;4.60;2.90;;;;;;;14.92;62.05;101036.80;107284;1253;59824;-80
2022/09/21 09:50:45;;;;;;;3.70;2.80;;;;;;;15.13;60.09;101038.00;107309;1253;71027;-79
2022/09/21 09:53:22;;;;;;;4.60;3.20;;;;;;;15.14;59.43;101036.73;107337;1253;72330;-81
2022/09/21 09:55:55;;;;;;;3.80;2.60;;;;;;;15.06;60.03;101039.44;107295;1253;70880;-82
2022/09/21 09:58:37;;;;;;;4.20;3.30;;;;;;;15.09;59.96;101041.55;107273;1254;73023;-82
2022/09/21 10:01:05;;;;;;;3.30;2.80;;;;;;;15.11;59.86;101045.34;107316;1253;60512;-81
2022/09/21 10:03:35;;;;;;;5.10;3.60;;;;;;;15.11;59.57;101041.54;107252;1253;59290;-81
2022/09/21 10:06:03;;;;;;;6.70;3.60;;;;;;;14.89;60.43;101038.64;107333;1253;72105;-75
2022/09/21 10:08:35;;;;;;;5.30;3.70;;;;;;;14.75;61.02;101032.17;107589;1253;69673;-82
2022/09/21 10:11:05;;;;;;;4.20;3.30;;;;;;;14.68;61.16;101037.50;107372;1253;70123;-76
2022/09/21 10:13:39;;;;;;;5.30;3.70;;;;;;;14.63;61.44;101039.96;107424;1254;74410;-78
2022/09/21 10:16:17;;;;;;;5.30;3.40;;;;;;;14.57;62.63;101043.30;107930;1252;61019;-82
2022/09/21 10:19:02;;;;;;;4.90;2.90;;;;;;;14.43;62.78;101046.01;107479;1252;61156;-78
2022/09/21 10:21:42;;;;;;;4.80;2.90;;;;;;;14.33;62.28;101046.13;107321;1253;70804;-82
2022/09/21 10:24:39;;;;;;;6.60;3.20;;;;;;;14.27;62.61;101040.85;109338;1253;70411;-81
2022/09/21 10:27:14;;;;;;;3.30;2.90;;;;;;;14.53;62.52;101041.67;107680;1253;68960;-77
2022/09/21 10:29:46;;;;;;;5.10;3.30;;;;;;;14.80;62.43;101035.61;107276;1253;74634;-79
2022/09/21 10:32:15;;;;;;;5.20;3.20;;;;;;;15.42;60.99;101028.64;106932;1254;60270;-80
2022/09/21 10:35:06;;;;;;;4.70;3.30;;;;;;;15.93;60.62;101025.70;107118;1253;60564;-84
2022/09/21 10:37:41;;;;;;;7.30;3.70;;;;;;;16.37;59.16;101022.77;107224;1253;71701;-82
2022/09/21 10:40:35;;;;;;;5.00;3.60;;;;;;;16.32;58.59;101017.08;107305;1253;72084;-78
2022/09/21 10:43:04;;;;;;;4.60;3.30;;;;;;;16.10;58.34;101020.98;107243;1253;69460;-81
2022/09/21 10:45:36;;;;;;;6.20;3.20;;;;;;;15.95;58.99;101018.69;107153;1254;72192;-84
2022/09/21 10:48:04;;;;;;;4.50;2.70;;;;;;;16.04;58.12;101024.73;107156;1253;61407;-80
2022/09/21 10:50:41;;;;;;;4.10;2.90;;;;;;;16.38;56.36;101013.56;107392;1251;59866;-83
2022/09/21 10:53:29;;;;;;;6.30;2.90;;;;;;;16.61;57.04;101012.08;107385;1251;71001;-81
2022/09/21 10:56:15;;;;;;;4.10;2.70;;;;;;;17.07;56.10;101013.45;107394;1250;72295;-81
2022/09/21 10:59:24;;;;;;;3.60;2.10;;;;;;;16.98;54.36;101010.40;107286;1253;69091;-82
2022/09/21 11:01:57;;;;;;;2.20;1.90;;;;;;;16.79;54.00;101007.64;107320;1251;73887;-83
2022/09/21 11:04:56;;;;;;;2.10;1.60;;;;;;;16.98;53.92;101003.52;107318;1251;61357;-79
2022/09/21 11:07:57;;;;;;;1.90;1.60;;;;;;;17.37;52.59;100998.43;107251;1251;60849;-82
2022/09/21 11:10:50;;;;;;;1.90;1.40;;;;;;;17.38;52.13;101001.83;107297;1252;70858;-81
2022/09/21 11:13:45;;;;;;;;;;;;;;;17.86;50.08;100997.33;107525;1251;72588;-80
2022/09/21 11:16:22;;;;;;;1.60;1.10;;;;;;;18.01;48.69;100994.77;107485;1251;59890;-81
2022/09/21 11:19:31;;;;;;;2.50;1.00;;;;;;;17.91;48.08;100997.55;107930;1246;73924;-85
2022/09/21 11:22:31;;;;;;;1.30;0.60;;;;;;;17.82;48.00;100988.00;107743;1247;61713;-79
2022/09/21 11:25:29;;;;;;;2.20;1.00;;;;;;;17.80;48.28;100992.34;107523;1248;58904;-83
2022/09/21 11:28:23;;;;;;;2.00;1.50;;;;;;;17.47;50.45;101006.08;108008;1247;62183;-82
2022/09/21 11:31:18;;;;;;;5.10;1.60;;;;;;;16.13;57.81;101017.88;107847;1247;71460;-78
2022/09/21 11:34:30;;;;;;;3.00;2.00;;;;;;;14.70;64.05;101021.66;107832;1247;70956;-81
2022/09/21 11:37:50;;;;;;;2.10;1.90;;;;;;;13.64;69.35;101027.25;107718;1247;74269;-84
2022/09/21 11:41:00;;;;;;;4.50;2.10;;;;;;;12.73;76.06;101032.42;107334;1245;63674;-77
2022/09/21 11:43:48;;;;;;;2.70;2.10;;;;;;;12.45;77.33;101031.43;107676;1247;60776;-79
2022/09/21 11:47:21;;;;;;;3.00;2.10;;;;;;;12.11;79.88;101023.33;107553;1247;70574;-80
2022/09/21 11:50:21;;;;;;;5.10;2.00;;;;;;;11.75;83.49;101022.21;107516;1247;70361;-84
2022/09/21 11:53:22;;;;;;;3.20;2.20;;;;;;;11.66;84.81;101024.92;107514;1247;69794;-79
2022/09/21 11:56:45;;;;;;;2.90;1.50;;;;;;;11.66;83.68;101014.66;107499;1247;72659;-82
2022/09/21 11:59:22;;;;;;;3.30;2.10;;;;;;;11.72;83.19;101019.61;106946;1255;61472;-82
2022/09/21 12:02:23;;;;;;;3.50;2.00;;;;;;;11.84;82.36;101019.02;106998;1255;61061;-81
2022/09/21 12:05:21;;;;;;;2.80;1.70;;;;;;;12.00;81.77;101013.14;107473;1247;71000;-78
2022/09/21 12:08:33;;;;;;;3.00;1.70;;;;;;;12.16;81.97;101015.42;107541;1247;72254;-80
2022/09/21 12:11:28;;;;;;;2.50;1.90;;;;;;;12.40;82.57;101015.02;107906;1245;69913;-81
2022/09/21 12:14:12;;;;;;;2.70;1.60;;;;;;;12.82;79.80;101012.19;107826;1244;72925;-82
2022/09/21 12:16:49;;;;;;;2.70;1.70;;;;;;;13.32;78.02;101006.00;107558;1247;63875;-81